Time;durP1;ratioP1;P1;durP2;ratioP2;P2;SDS_P1;SDS_P2;PMS_P1;PMS_P2;Temp;Humidity;BMP_temperature;BMP_pressure;BME280_temperature;BME280_humidity;BME280_pressure;Samples;Min_cycle;Max_cycle;Signal;HPM_P1;HPM_P2
2020/12/25 00:00:04;;;;;;;1.98;0.70;;;3.90;94.20;;;;;;2062449;28;20050;-81
2020/12/25 00:01:06;;;;;;;3.60;0.88;;;3.90;94.20;;;;;;2056873;28;20027;-80
2020/12/25 00:02:07;;;;;;;6.35;0.70;;;3.90;94.20;;;;;;2057224;28;20041;-80
2020/12/25 00:03:08;;;;;;;6.53;1.30;;;3.90;94.20;;;;;;2054079;28;20381;-80
2020/12/25 00:04:08;;;;;;;5.40;1.00;;;3.90;94.20;;;;;;2044130;29;20450;-80
2020/12/25 00:05:09;;;;;;;1.85;0.73;;;3.90;94.20;;;;;;2048581;29;20114;-80
2020/12/25 00:06:09;;;;;;;3.47;0.82;;;3.80;94.20;;;;;;2055773;28;20034;-80
2020/12/25 00:07:10;;;;;;;3.45;0.80;;;3.80;94.20;;;;;;2057314;28;20501;-80
2020/12/25 00:08:13;;;;;;;2.85;0.80;;;3.80;94.10;;;;;;2055651;28;20031;-79
2020/12/25 00:09:14;;;;;;;4.30;0.90;;;3.80;94.20;;;;;;2048532;28;20031;-80
2020/12/25 00:10:14;;;;;;;2.83;0.70;;;3.80;94.20;;;;;;2056015;28;20026;-80
2020/12/25 00:11:15;;;;;;;4.85;1.00;;;3.80;94.20;;;;;;2056061;28;20386;-80
2020/12/25 00:12:16;;;;;;;3.38;0.80;;;3.80;94.10;;;;;;2056383;28;20545;-80
2020/12/25 00:13:16;;;;;;;3.20;0.70;;;3.80;94.10;;;;;;2056334;28;20478;-80
2020/12/25 00:14:17;;;;;;;3.80;0.80;;;3.80;94.20;;;;;;2047772;28;20027;-80
2020/12/25 00:15:17;;;;;;;2.58;0.60;;;3.80;94.20;;;;;;2049865;28;20035;-79
2020/12/25 00:16:24;;;;;;;3.13;0.80;;;3.70;94.10;;;;;;2056562;28;20023;-80
2020/12/25 00:17:24;;;;;;;2.53;0.60;;;3.80;94.20;;;;;;2067603;28;20030;-80
2020/12/25 00:18:25;;;;;;;4.35;0.85;;;3.70;94.20;;;;;;2065512;28;20103;-80
2020/12/25 00:19:26;;;;;;;3.13;0.80;;;3.70;94.20;;;;;;2062256;28;20030;-80
2020/12/25 00:20:27;;;;;;;5.18;0.60;;;3.70;94.20;;;;;;2063515;28;20120;-80
2020/12/25 00:21:27;;;;;;;4.18;0.82;;;3.70;94.20;;;;;;2064134;28;20031;-81
2020/12/25 00:22:28;;;;;;;4.55;0.93;;;3.70;94.20;;;;;;2058607;28;20035;-80
2020/12/25 00:23:30;;;;;;;1.67;0.70;;;3.70;94.20;;;;;;2058066;28;20034;-80
2020/12/25 00:24:31;;;;;;;3.63;0.75;;;3.70;94.20;;;;;;2044042;29;20023;-79
2020/12/25 00:25:31;;;;;;;2.63;0.68;;;3.70;94.20;;;;;;2052089;28;20035;-80
2020/12/25 00:26:33;;;;;;;2.42;0.73;;;3.70;94.20;;;;;;2064187;28;20105;-80
2020/12/25 00:27:33;;;;;;;3.85;0.65;;;3.70;94.20;;;;;;2057735;28;20030;-80
2020/12/25 00:28:34;;;;;;;4.18;0.68;;;3.70;94.20;;;;;;2057264;28;20358;-80
2020/12/25 00:29:35;;;;;;;4.05;0.95;;;3.70;94.20;;;;;;2049306;29;20087;-80
2020/12/25 00:30:35;;;;;;;3.38;0.70;;;3.70;94.20;;;;;;2049552;29;20062;-80
2020/12/25 00:31:39;;;;;;;5.03;1.10;;;3.70;94.20;;;;;;2057718;28;20117;-80
2020/12/25 00:32:46;;;;;;;3.38;0.75;;;3.60;94.20;;;;;;2057355;28;20533;-80
2020/12/25 00:33:46;;;;;;;3.22;0.63;;;3.60;94.20;;;;;;2055591;28;20039;-80
2020/12/25 00:34:47;;;;;;;4.68;0.70;;;3.60;94.20;;;;;;2057425;28;20512;-80
2020/12/25 00:35:47;;;;;;;4.70;0.82;;;3.60;94.20;;;;;;2057572;28;20065;-80
2020/12/25 00:36:48;;;;;;;3.47;0.70;;;3.60;94.20;;;;;;2056437;28;20489;-80
2020/12/25 00:37:49;;;;;;;5.15;0.90;;;3.60;94.20;;;;;;2049373;28;20055;-80
2020/12/25 00:38:49;;;;;;;3.65;1.05;;;3.60;94.20;;;;;;2043231;28;20032;-80
2020/12/25 00:39:50;;;;;;;4.15;0.80;;;3.60;94.20;;;;;;2038768;29;20036;-80
2020/12/25 00:40:51;;;;;;;4.53;0.90;;;3.60;94.20;;;;;;2052984;28;20022;-80
2020/12/25 00:41:51;;;;;;;3.53;0.73;;;3.60;94.20;;;;;;2049719;28;20045;-80
2020/12/25 00:42:52;;;;;;;2.80;0.70;;;3.60;94.20;;;;;;2051658;28;20478;-80
2020/12/25 00:43:54;;;;;;;3.33;0.70;;;3.60;94.20;;;;;;2057584;28;20041;-80
2020/12/25 00:44:54;;;;;;;2.60;0.70;;;3.60;94.20;;;;;;2054266;28;20417;-80
2020/12/25 00:45:55;;;;;;;2.53;0.60;;;3.60;94.20;;;;;;2049775;28;20035;-80
2020/12/25 00:46:55;;;;;;;2.25;0.65;;;3.60;94.20;;;;;;2035912;29;20056;-80
2020/12/25 00:47:56;;;;;;;2.20;0.63;;;3.60;94.20;;;;;;2045552;28;20098;-80
2020/12/25 00:48:57;;;;;;;3.47;0.68;;;3.60;94.20;;;;;;2049677;28;20114;-80
2020/12/25 00:49:57;;;;;;;3.78;0.65;;;3.60;94.20;;;;;;2049746;28;20066;-80
2020/12/25 00:50:58;;;;;;;3.42;0.85;;;3.60;94.20;;;;;;2057346;28;20031;-80
2020/12/25 00:51:58;;;;;;;1.75;0.50;;;3.60;94.20;;;;;;2044038;28;20099;-80
2020/12/25 00:52:59;;;;;;;1.88;0.57;;;3.60;94.20;;;;;;2041716;29;20556;-80
2020/12/25 00:54:00;;;;;;;3.33;0.80;;;3.50;94.20;;;;;;2052283;28;20031;-80
2020/12/25 00:55:00;;;;;;;3.35;0.85;;;3.50;94.20;;;;;;2054799;28;20122;-80
2020/12/25 00:56:02;;;;;;;5.68;0.85;;;3.50;94.20;;;;;;2056946;28;20026;-80
2020/12/25 00:57:03;;;;;;;3.20;0.73;;;3.50;94.20;;;;;;2056875;28;20031;-80
2020/12/25 00:58:03;;;;;;;4.05;0.75;;;3.50;94.20;;;;;;2055309;28;20508;-80
2020/12/25 00:59:04;;;;;;;5.93;1.10;;;3.50;94.20;;;;;;2048343;29;20035;-80
2020/12/25 01:00:05;;;;;;;5.78;1.00;;;3.50;94.20;;;;;;2049360;28;20536;-80
2020/12/25 01:01:07;;;;;;;2.20;0.80;;;3.50;94.20;;;;;;2058192;28;20461;-80
2020/12/25 01:02:08;;;;;;;3.25;0.90;;;3.50;94.20;;;;;;2058314;28;20035;-80
2020/12/25 01:03:09;;;;;;;4.00;0.70;;;3.50;94.20;;;;;;2057648;28;20081;-80
2020/12/25 01:04:10;;;;;;;4.60;0.77;;;3.50;94.20;;;;;;2058140;28;20076;-81
2020/12/25 01:05:10;;;;;;;5.22;0.60;;;3.50;94.20;;;;;;2058228;28;20061;-80
2020/12/25 01:06:15;;;;;;;4.28;0.70;;;3.50;94.20;;;;;;2057503;28;20500;-80
2020/12/25 01:07:15;;;;;;;4.45;0.70;;;3.50;94.20;;;;;;2058222;28;20030;-79
2020/12/25 01:08:19;;;;;;;3.88;0.82;;;3.40;94.20;;;;;;2054955;28;20031;-79
2020/12/25 01:09:19;;;;;;;3.33;0.60;;;3.40;94.20;;;;;;2056580;28;20038;-80
2020/12/25 01:10:20;;;;;;;2.42;0.50;;;3.40;94.20;;;;;;2049581;28;20494;-79
2020/12/25 01:11:24;;;;;;;6.32;1.25;;;3.40;94.20;;;;;;2046469;29;20039;-80
2020/12/25 01:12:25;;;;;;;3.88;0.60;;;3.40;94.20;;;;;;2049958;28;20126;-79
2020/12/25 01:13:25;;;;;;;3.40;1.27;;;3.40;94.20;;;;;;2057459;28;20042;-80
2020/12/25 01:14:30;;;;;;;2.35;0.60;;;3.40;94.20;;;;;;2056806;28;20034;-79
2020/12/25 01:15:31;;;;;;;4.63;0.82;;;3.40;94.20;;;;;;2048848;28;20502;-80
2020/12/25 01:16:31;;;;;;;4.18;0.70;;;3.40;94.20;;;;;;2049441;28;20027;-80
2020/12/25 01:17:32;;;;;;;4.15;0.60;;;3.40;94.20;;;;;;2054018;28;20385;-80
2020/12/25 01:18:33;;;;;;;2.92;0.60;;;3.40;94.50;;;;;;2049337;28;20039;-80
2020/12/25 01:19:34;;;;;;;3.35;0.75;;;3.40;94.20;;;;;;2057463;28;20051;-80
2020/12/25 01:20:35;;;;;;;4.45;0.98;;;3.40;94.50;;;;;;2057610;28;20093;-80
2020/12/25 01:21:36;;;;;;;3.03;0.60;;;3.40;94.20;;;;;;2062790;28;20027;-80
2020/12/25 01:22:37;;;;;;;2.00;0.47;;;3.40;94.20;;;;;;2056785;28;20401;-80
2020/12/25 01:23:38;;;;;;;2.17;0.70;;;3.40;94.20;;;;;;2058021;28;20035;-80
2020/12/25 01:24:38;;;;;;;4.50;0.80;;;3.40;94.20;;;;;;2053180;28;20019;-80
2020/12/25 01:25:39;;;;;;;2.83;0.68;;;3.40;94.20;;;;;;2056473;28;20437;-80
2020/12/25 01:26:39;;;;;;;3.67;0.75;;;3.40;94.20;;;;;;2048480;28;20031;-80
2020/12/25 01:27:40;;;;;;;3.95;0.68;;;3.30;94.20;;;;;;2054782;28;20148;-80
2020/12/25 01:28:41;;;;;;;4.32;0.70;;;3.40;94.20;;;;;;2056650;28;20469;-80
2020/12/25 01:29:41;;;;;;;3.97;0.50;;;3.40;94.20;;;;;;2056635;28;20046;-80
2020/12/25 01:30:42;;;;;;;3.53;0.95;;;3.40;94.20;;;;;;2056670;28;20058;-79
2020/12/25 01:31:42;;;;;;;2.15;0.77;;;3.40;94.20;;;;;;2050172;28;20043;-80
2020/12/25 01:32:43;;;;;;;6.15;0.63;;;3.30;94.20;;;;;;2056752;28;20062;-80
2020/12/25 01:33:45;;;;;;;4.47;0.70;;;3.30;94.20;;;;;;2057285;28;20022;-80
2020/12/25 01:34:46;;;;;;;3.33;0.70;;;3.40;94.20;;;;;;2049373;28;20034;-80
2020/12/25 01:35:46;;;;;;;4.13;0.75;;;3.30;94.20;;;;;;2048843;28;20406;-80
2020/12/25 01:36:47;;;;;;;4.18;0.80;;;3.40;94.20;;;;;;2049311;28;20035;-80
2020/12/25 01:37:48;;;;;;;7.00;0.82;;;3.30;94.20;;;;;;2048202;28;20516;-80
2020/12/25 01:38:48;;;;;;;3.42;0.60;;;3.30;94.20;;;;;;2049032;28;20046;-80
2020/12/25 01:39:49;;;;;;;1.60;0.60;;;3.30;94.20;;;;;;2041498;29;20494;-80
2020/12/25 01:40:50;;;;;;;2.28;0.55;;;3.30;94.20;;;;;;2042650;28;20066;-80
2020/12/25 01:41:50;;;;;;;1.65;0.70;;;3.30;94.20;;;;;;2049195;28;20110;-80
2020/12/25 01:42:51;;;;;;;2.10;0.50;;;3.30;94.20;;;;;;2054674;28;20065;-80
2020/12/25 01:43:52;;;;;;;1.48;0.50;;;3.30;94.20;;;;;;2057319;28;20086;-80
2020/12/25 01:44:52;;;;;;;1.70;0.47;;;3.30;94.20;;;;;;2055932;28;20457;-80
2020/12/25 01:45:53;;;;;;;2.92;1.02;;;3.30;94.20;;;;;;2048711;28;20027;-80
2020/12/25 01:46:54;;;;;;;3.00;0.60;;;3.30;94.20;;;;;;2049048;28;20423;-80
2020/12/25 01:47:55;;;;;;;2.42;0.57;;;3.40;94.20;;;;;;2049401;28;20502;-80
2020/12/25 01:48:57;;;;;;;5.32;0.55;;;3.30;94.20;;;;;;2049901;28;20075;-81
2020/12/25 01:49:58;;;;;;;3.65;0.65;;;3.40;94.20;;;;;;2055202;28;20027;-80
2020/12/25 01:50:59;;;;;;;5.57;0.80;;;3.30;94.20;;;;;;2057217;28;20014;-80
2020/12/25 01:52:00;;;;;;;4.03;0.52;;;3.40;94.20;;;;;;2056679;28;20471;-80
2020/12/25 01:53:02;;;;;;;3.63;0.90;;;3.40;94.20;;;;;;2057865;28;20023;-80
2020/12/25 01:54:03;;;;;;;6.20;0.85;;;3.40;94.10;;;;;;2052973;28;20028;-80
2020/12/25 01:55:06;;;;;;;2.35;0.70;;;3.40;94.10;;;;;;2046223;29;20077;-80
2020/12/25 01:56:07;;;;;;;5.82;0.73;;;3.30;94.10;;;;;;2054091;28;20022;-80
2020/12/25 01:57:09;;;;;;;2.45;0.70;;;3.30;94.10;;;;;;2057269;28;20066;-80
2020/12/25 01:58:10;;;;;;;3.45;0.50;;;3.40;94.10;;;;;;2056615;28;20447;-80
2020/12/25 01:59:10;;;;;;;3.67;0.65;;;3.40;94.20;;;;;;2057105;28;20485;-80
2020/12/25 02:00:11;;;;;;;4.47;0.70;;;3.30;94.10;;;;;;2040324;29;20071;-80
2020/12/25 02:01:12;;;;;;;4.10;0.70;;;3.40;94.20;;;;;;2048260;29;20030;-80
2020/12/25 02:02:15;;;;;;;2.03;0.52;;;3.40;94.10;;;;;;2053140;28;20030;-80
2020/12/25 02:03:15;;;;;;;3.92;0.52;;;3.40;94.20;;;;;;2057099;28;20037;-80
2020/12/25 02:04:16;;;;;;;3.63;0.60;;;3.40;94.10;;;;;;2053964;28;20023;-80
2020/12/25 02:05:17;;;;;;;3.35;0.57;;;3.40;94.10;;;;;;2049011;28;20032;-80
2020/12/25 02:06:18;;;;;;;2.85;0.60;;;3.40;94.20;;;;;;2042475;28;20491;-80
2020/12/25 02:07:18;;;;;;;4.47;0.60;;;3.40;94.10;;;;;;2052230;28;20083;-80
2020/12/25 02:08:19;;;;;;;3.70;0.80;;;3.40;94.10;;;;;;2052458;28;20026;-80
2020/12/25 02:09:19;;;;;;;3.10;0.60;;;3.40;94.10;;;;;;2043982;29;20035;-80
2020/12/25 02:10:20;;;;;;;2.83;0.40;;;3.40;94.40;;;;;;2055994;28;20509;-80
2020/12/25 02:11:21;;;;;;;4.20;0.88;;;3.30;94.10;;;;;;2055298;28;20022;-80
2020/12/25 02:12:22;;;;;;;4.50;0.80;;;3.30;94.10;;;;;;2048114;28;20024;-80
2020/12/25 02:13:23;;;;;;;3.00;0.60;;;3.30;94.10;;;;;;2049032;28;20059;-80
2020/12/25 02:14:23;;;;;;;3.17;0.50;;;3.30;94.10;;;;;;2057050;28;20066;-79
2020/12/25 02:15:24;;;;;;;2.88;0.40;;;3.30;94.10;;;;;;2049227;29;20425;-80
2020/12/25 02:16:25;;;;;;;5.07;0.75;;;3.30;94.10;;;;;;2048969;28;20046;-80
2020/12/25 02:17:26;;;;;;;4.90;0.65;;;3.30;94.10;;;;;;2056954;28;20026;-80
2020/12/25 02:18:36;;;;;;;3.17;0.70;;;3.30;94.10;;;;;;2056986;28;20027;-80
2020/12/25 02:19:39;;;;;;;3.63;0.60;;;3.30;94.40;;;;;;2055219;28;20023;-80
2020/12/25 02:20:40;;;;;;;5.90;0.90;;;3.30;94.10;;;;;;2052072;28;20482;-80
2020/12/25 02:21:41;;;;;;;5.82;0.80;;;3.30;94.10;;;;;;2049844;28;20126;-80
2020/12/25 02:22:42;;;;;;;3.97;0.70;;;3.30;94.20;;;;;;2056564;28;20098;-80
2020/12/25 02:23:43;;;;;;;3.17;0.60;;;3.30;94.20;;;;;;2057051;28;20034;-80
2020/12/25 02:24:43;;;;;;;4.53;0.80;;;3.30;94.10;;;;;;2056643;28;20110;-80
2020/12/25 02:25:47;;;;;;;3.53;0.75;;;3.30;94.10;;;;;;2054104;28;20039;-80
2020/12/25 02:26:48;;;;;;;6.38;0.60;;;3.30;94.10;;;;;;2056001;28;20026;-80
2020/12/25 02:27:48;;;;;;;2.95;0.68;;;3.30;94.10;;;;;;2049544;28;20063;-80
2020/12/25 02:28:49;;;;;;;2.83;0.57;;;3.40;94.10;;;;;;2049038;29;20473;-80
2020/12/25 02:29:49;;;;;;;3.75;0.70;;;3.40;94.10;;;;;;2055208;28;20183;-80
2020/12/25 02:30:50;;;;;;;3.40;0.63;;;3.30;94.10;;;;;;2056182;28;20027;-80
2020/12/25 02:31:51;;;;;;;2.35;0.60;;;3.40;94.10;;;;;;2047501;28;20047;-80
2020/12/25 02:32:51;;;;;;;4.88;0.70;;;3.40;94.10;;;;;;2048839;29;20114;-80
2020/12/25 02:33:52;;;;;;;4.03;0.73;;;3.40;94.10;;;;;;2048388;28;20063;-80
2020/12/25 02:34:53;;;;;;;1.33;0.50;;;3.30;94.00;;;;;;2040383;29;20024;-80
2020/12/25 02:35:53;;;;;;;2.45;0.55;;;3.40;94.10;;;;;;2040426;29;20035;-80
2020/12/25 02:36:54;;;;;;;3.20;0.50;;;3.40;94.30;;;;;;2057035;28;20034;-80
2020/12/25 02:37:54;;;;;;;3.35;0.65;;;3.40;94.10;;;;;;2054925;28;20078;-80
2020/12/25 02:38:55;;;;;;;2.92;0.50;;;3.40;94.00;;;;;;2042853;29;20039;-80
2020/12/25 02:39:55;;;;;;;4.45;0.70;;;3.40;94.00;;;;;;2039884;29;20474;-80
2020/12/25 02:40:56;;;;;;;2.92;0.60;;;3.40;94.00;;;;;;2041057;29;20035;-81
2020/12/25 02:41:57;;;;;;;3.67;0.57;;;3.40;94.00;;;;;;2055793;28;20026;-80
2020/12/25 02:42:57;;;;;;;2.80;0.70;;;3.40;94.00;;;;;;2048700;28;20046;-79
2020/12/25 02:43:58;;;;;;;2.80;0.70;;;3.40;94.00;;;;;;2043413;29;20091;-80
2020/12/25 02:44:59;;;;;;;3.63;0.70;;;3.50;94.00;;;;;;2048319;28;20430;-80
2020/12/25 02:46:00;;;;;;;5.07;0.60;;;3.40;94.00;;;;;;2048827;29;20034;-80
2020/12/25 02:47:00;;;;;;;2.75;0.50;;;3.50;94.00;;;;;;2050319;28;20493;-80
2020/12/25 02:48:01;;;;;;;5.63;0.70;;;3.50;94.00;;;;;;2056880;28;20027;-80
2020/12/25 02:49:02;;;;;;;4.22;0.55;;;3.50;94.00;;;;;;2040431;29;20040;-79
2020/12/25 02:50:03;;;;;;;3.42;0.80;;;3.50;94.00;;;;;;2032233;29;20035;-80
2020/12/25 02:51:03;;;;;;;2.72;0.55;;;3.50;94.00;;;;;;2048919;28;20034;-80
2020/12/25 02:52:05;;;;;;;2.08;0.40;;;3.50;94.00;;;;;;2056501;28;20432;-80
2020/12/25 02:53:05;;;;;;;2.25;0.50;;;3.50;94.00;;;;;;2056857;28;20033;-80
2020/12/25 02:54:06;;;;;;;2.83;0.70;;;3.50;94.00;;;;;;2056825;28;20025;-79
2020/12/25 02:55:07;;;;;;;3.95;0.65;;;3.50;94.00;;;;;;2056282;28;20039;-80
2020/12/25 02:56:07;;;;;;;1.80;0.50;;;3.50;94.00;;;;;;2056741;28;20056;-80
2020/12/25 02:57:08;;;;;;;3.70;0.60;;;3.50;94.00;;;;;;2056751;28;20031;-80
2020/12/25 02:58:08;;;;;;;1.10;0.38;;;3.40;93.90;;;;;;2057158;28;20129;-80
2020/12/25 02:59:10;;;;;;;2.85;0.60;;;3.50;94.00;;;;;;2056613;28;20038;-80
2020/12/25 03:00:10;;;;;;;2.28;0.47;;;3.40;94.00;;;;;;2055735;28;20027;-80
2020/12/25 03:01:12;;;;;;;2.03;0.50;;;3.40;94.00;;;;;;2064248;28;20034;-80
2020/12/25 03:02:15;;;;;;;3.55;0.50;;;3.40;94.00;;;;;;2051899;28;20035;-80
2020/12/25 03:03:15;;;;;;;1.95;0.43;;;3.40;94.00;;;;;;2048671;28;20174;-80
2020/12/25 03:04:16;;;;;;;1.75;0.57;;;3.40;94.00;;;;;;2048753;29;20035;-80
2020/12/25 03:05:17;;;;;;;2.78;0.50;;;3.40;94.00;;;;;;2056614;28;20027;-80
2020/12/25 03:06:18;;;;;;;2.45;0.40;;;3.30;94.00;;;;;;2048125;29;20035;-80
2020/12/25 03:07:18;;;;;;;3.05;0.60;;;3.30;94.10;;;;;;2048642;28;20457;-80
2020/12/25 03:08:19;;;;;;;2.03;0.47;;;3.30;94.10;;;;;;2055911;28;20027;-80
2020/12/25 03:09:19;;;;;;;2.25;0.60;;;3.30;94.10;;;;;;2048637;28;20031;-80
2020/12/25 03:10:20;;;;;;;2.80;0.50;;;3.30;94.10;;;;;;2047305;28;20557;-80
2020/12/25 03:11:21;;;;;;;2.72;0.57;;;3.30;94.10;;;;;;2040756;29;20031;-80
2020/12/25 03:12:21;;;;;;;1.40;0.40;;;3.30;94.10;;;;;;2047290;28;20027;-80
2020/12/25 03:13:22;;;;;;;2.25;0.55;;;3.20;94.10;;;;;;2056568;28;20053;-80
2020/12/25 03:14:22;;;;;;;2.58;0.57;;;3.20;94.40;;;;;;2045072;28;20050;-80
2020/12/25 03:15:24;;;;;;;2.30;0.50;;;3.20;94.10;;;;;;2051276;28;20455;-80
2020/12/25 03:16:24;;;;;;;2.65;0.40;;;3.20;94.10;;;;;;2050294;28;20421;-79
2020/12/25 03:17:25;;;;;;;2.13;0.65;;;3.20;94.10;;;;;;2056506;28;20039;-80
2020/12/25 03:18:25;;;;;;;2.15;0.50;;;3.20;94.10;;;;;;2056421;28;20103;-80
2020/12/25 03:19:26;;;;;;;3.10;0.60;;;3.20;94.10;;;;;;2055082;28;20134;-80
2020/12/25 03:20:27;;;;;;;3.15;0.50;;;3.20;94.10;;;;;;2039945;29;20038;-79
2020/12/25 03:21:28;;;;;;;2.58;0.60;;;3.20;94.10;;;;;;2046846;28;20062;-81
2020/12/25 03:22:31;;;;;;;2.13;0.60;;;3.20;94.10;;;;;;2040720;29;20059;-80
2020/12/25 03:23:32;;;;;;;1.13;0.40;;;3.20;94.20;;;;;;2033713;29;20036;-80
2020/12/25 03:24:36;;;;;;;3.25;0.40;;;3.20;94.20;;;;;;2051973;28;20602;-80
2020/12/25 03:25:37;;;;;;;4.28;0.57;;;3.20;94.20;;;;;;2056917;28;20127;-80
2020/12/25 03:26:37;;;;;;;3.92;0.57;;;3.20;94.20;;;;;;2055659;28;20034;-80
2020/12/25 03:27:41;;;;;;;2.80;0.60;;;3.20;94.20;;;;;;2056017;28;20035;-80
2020/12/25 03:28:42;;;;;;;1.73;0.57;;;3.20;94.20;;;;;;2047357;28;20061;-80
2020/12/25 03:29:42;;;;;;;2.70;0.43;;;3.20;94.20;;;;;;2043781;28;20075;-80
2020/12/25 03:30:43;;;;;;;2.55;0.60;;;3.20;94.20;;;;;;2048005;29;20036;-79
2020/12/25 03:31:44;;;;;;;2.47;0.47;;;3.20;94.20;;;;;;2039635;29;20494;-80
2020/12/25 03:32:45;;;;;;;2.85;0.30;;;3.20;94.10;;;;;;2053313;28;20496;-80
2020/12/25 03:33:45;;;;;;;2.38;0.50;;;3.20;94.10;;;;;;2057153;28;20110;-80
2020/12/25 03:34:46;;;;;;;2.22;0.43;;;3.30;94.10;;;;;;2054844;28;20054;-80
2020/12/25 03:35:47;;;;;;;4.25;0.50;;;3.30;94.10;;;;;;2048374;28;20157;-80
2020/12/25 03:36:49;;;;;;;2.90;0.40;;;3.30;94.10;;;;;;2055642;28;20477;-80
2020/12/25 03:37:50;;;;;;;1.77;0.40;;;3.30;94.00;;;;;;2056211;28;20109;-80
2020/12/25 03:38:50;;;;;;;1.88;0.47;;;3.30;94.10;;;;;;2057144;28;20050;-80
2020/12/25 03:39:52;;;;;;;1.85;0.40;;;3.30;94.00;;;;;;2056632;28;20037;-80
2020/12/25 03:40:52;;;;;;;1.80;0.47;;;3.30;94.00;;;;;;2056387;28;20568;-80
2020/12/25 03:41:53;;;;;;;2.05;0.68;;;3.30;94.00;;;;;;2049242;28;20067;-80
2020/12/25 03:42:54;;;;;;;1.15;0.30;;;3.30;94.00;;;;;;2053109;28;20061;-80
2020/12/25 03:43:54;;;;;;;1.70;0.40;;;3.40;94.00;;;;;;2054649;28;20034;-80
2020/12/25 03:44:55;;;;;;;1.33;0.40;;;3.30;94.20;;;;;;2048576;29;20069;-80
2020/12/25 03:46:02;;;;;;;2.75;0.40;;;3.40;94.00;;;;;;2048528;28;20035;-80
2020/12/25 03:47:03;;;;;;;1.92;0.38;;;3.40;94.00;;;;;;2057222;28;20031;-80
2020/12/25 03:48:03;;;;;;;2.55;0.40;;;3.40;94.00;;;;;;2057115;28;20030;-80
2020/12/25 03:49:05;;;;;;;1.58;0.40;;;3.40;94.00;;;;;;2056597;28;20046;-80
2020/12/25 03:50:09;;;;;;;2.10;0.40;;;3.40;93.90;;;;;;2037956;29;20028;-80
2020/12/25 03:51:10;;;;;;;1.55;0.30;;;3.40;93.90;;;;;;2047976;28;20424;-80
2020/12/25 03:52:10;;;;;;;3.33;0.40;;;3.40;93.90;;;;;;2050013;28;20038;-80
2020/12/25 03:53:11;;;;;;;0.93;0.28;;;3.40;93.90;;;;;;2050187;29;20031;-80
2020/12/25 03:54:11;;;;;;;2.45;0.40;;;3.40;93.90;;;;;;2051236;28;20024;-80
2020/12/25 03:55:12;;;;;;;1.88;0.25;;;3.40;93.90;;;;;;2057809;28;20038;-80
2020/12/25 03:56:16;;;;;;;2.28;0.60;;;3.40;93.80;;;;;;2049386;29;20122;-80
2020/12/25 03:57:17;;;;;;;2.78;0.50;;;3.40;93.80;;;;;;2057850;28;20046;-80
2020/12/25 03:58:18;;;;;;;2.22;0.45;;;3.40;93.80;;;;;;2058574;28;20035;-80
2020/12/25 03:59:19;;;;;;;1.02;0.30;;;3.40;93.80;;;;;;2053925;28;20510;-80
2020/12/25 04:00:19;;;;;;;1.58;0.30;;;3.40;93.80;;;;;;2051887;28;20031;-80
2020/12/25 04:01:20;;;;;;;1.15;0.30;;;3.40;93.80;;;;;;2053454;28;20125;-80
2020/12/25 04:02:21;;;;;;;4.13;0.68;;;3.40;93.80;;;;;;2050732;28;20036;-80
2020/12/25 04:03:22;;;;;;;1.42;0.30;;;3.30;93.80;;;;;;2050869;28;20031;-80
2020/12/25 04:04:22;;;;;;;2.20;0.50;;;3.30;93.80;;;;;;2054287;28;20019;-80
2020/12/25 04:05:23;;;;;;;2.22;0.50;;;3.30;93.80;;;;;;2056278;28;20023;-80
2020/12/25 04:06:23;;;;;;;2.05;0.30;;;3.30;93.80;;;;;;2051239;28;20497;-80
2020/12/25 04:07:24;;;;;;;1.45;0.30;;;3.20;93.80;;;;;;2053250;29;20108;-80
2020/12/25 04:08:25;;;;;;;2.30;0.30;;;3.20;93.80;;;;;;2045209;29;20052;-80
2020/12/25 04:09:25;;;;;;;2.05;0.20;;;3.20;94.10;;;;;;2064820;28;20066;-80
2020/12/25 04:10:26;;;;;;;1.23;0.30;;;3.20;93.90;;;;;;2066347;28;20015;-80
2020/12/25 04:11:26;;;;;;;1.42;0.38;;;3.20;93.80;;;;;;2063477;28;20473;-81
2020/12/25 04:12:27;;;;;;;1.70;0.82;;;3.20;93.80;;;;;;2057651;28;20028;-79
2020/12/25 04:13:28;;;;;;;1.38;0.30;;;3.20;93.80;;;;;;2052789;28;20023;-80
2020/12/25 04:14:28;;;;;;;2.90;0.30;;;3.20;93.90;;;;;;2050362;28;20054;-79
2020/12/25 04:15:29;;;;;;;1.92;0.35;;;3.20;93.90;;;;;;2058100;28;20465;-79
2020/12/25 04:16:30;;;;;;;1.58;0.40;;;3.20;93.90;;;;;;2056849;28;20122;-80
2020/12/25 04:17:31;;;;;;;1.73;0.30;;;3.20;93.90;;;;;;2064588;28;20102;-80
2020/12/25 04:18:31;;;;;;;2.20;0.55;;;3.10;93.90;;;;;;2053769;28;20028;-79
2020/12/25 04:19:32;;;;;;;1.67;0.22;;;3.10;93.90;;;;;;2059159;28;20063;-80
2020/12/25 04:20:33;;;;;;;1.55;0.30;;;3.10;93.90;;;;;;2057454;28;20082;-80
2020/12/25 04:21:34;;;;;;;2.00;0.35;;;3.10;93.90;;;;;;2066848;28;20066;-81
2020/12/25 04:22:34;;;;;;;1.10;0.30;;;3.10;93.90;;;;;;2064510;28;20114;-80
2020/12/25 04:23:38;;;;;;;1.65;0.32;;;3.10;93.90;;;;;;2058060;28;20042;-80
2020/12/25 04:24:38;;;;;;;0.82;0.20;;;3.10;93.90;;;;;;2058011;28;20034;-80
2020/12/25 04:25:39;;;;;;;1.02;0.20;;;3.10;93.90;;;;;;2058081;28;20023;-80
2020/12/25 04:26:44;;;;;;;2.38;0.40;;;3.10;93.90;;;;;;2057112;28;20027;-79
2020/12/25 04:27:44;;;;;;;1.35;0.28;;;3.10;93.80;;;;;;2057674;28;20034;-80
2020/12/25 04:28:45;;;;;;;2.95;0.40;;;3.10;93.90;;;;;;2050056;28;20032;-80
2020/12/25 04:29:48;;;;;;;1.77;0.20;;;3.10;93.80;;;;;;2055808;28;20481;-79
2020/12/25 04:30:49;;;;;;;3.55;0.30;;;3.10;93.90;;;;;;2049934;28;20036;-80
2020/12/25 04:31:50;;;;;;;1.88;0.20;;;3.00;93.90;;;;;;2052885;28;20390;-80
2020/12/25 04:32:51;;;;;;;1.55;0.20;;;3.10;93.90;;;;;;2049997;28;20023;-80
2020/12/25 04:33:52;;;;;;;0.90;0.20;;;3.00;93.80;;;;;;2053181;28;20065;-80
2020/12/25 04:34:53;;;;;;;1.15;0.30;;;3.00;93.90;;;;;;2052158;28;20027;-80
2020/12/25 04:35:54;;;;;;;0.65;0.20;;;3.00;93.90;;;;;;2041238;28;20542;-80
2020/12/25 04:36:55;;;;;;;1.25;0.20;;;3.00;93.90;;;;;;2042277;29;20038;-80
2020/12/25 04:37:55;;;;;;;1.35;0.40;;;3.00;93.90;;;;;;2050445;28;20063;-80
2020/12/25 04:38:56;;;;;;;1.00;0.20;;;3.00;93.90;;;;;;2067853;28;20034;-79
2020/12/25 04:39:56;;;;;;;1.15;0.30;;;3.00;93.90;;;;;;2060796;28;20042;-80
2020/12/25 04:40:58;;;;;;;1.13;0.30;;;3.00;93.90;;;;;;2060017;28;20023;-80
2020/12/25 04:41:59;;;;;;;1.17;0.20;;;3.00;93.90;;;;;;2061183;28;20011;-81
2020/12/25 04:43:02;;;;;;;0.20;0.10;;;3.00;93.90;;;;;;2064627;28;20027;-82
2020/12/25 04:44:04;;;;;;;1.15;0.20;;;3.00;93.90;;;;;;2055974;28;20166;-80
2020/12/25 04:45:04;;;;;;;1.38;0.30;;;3.00;94.10;;;;;;2058049;28;20063;-80
2020/12/25 04:46:06;;;;;;;0.45;0.10;;;3.00;93.90;;;;;;2049597;28;20043;-80
2020/12/25 04:47:08;;;;;;;1.23;0.20;;;3.00;93.90;;;;;;2057255;28;20077;-80
2020/12/25 04:48:10;;;;;;;1.05;0.20;;;3.00;94.20;;;;;;2057733;28;20489;-79
2020/12/25 04:49:13;;;;;;;0.93;0.30;;;3.00;93.90;;;;;;2057470;28;20035;-80
2020/12/25 04:50:14;;;;;;;0.20;0.10;;;3.00;93.90;;;;;;2044662;28;20031;-80
2020/12/25 04:51:15;;;;;;;1.00;0.30;;;3.00;93.90;;;;;;2049920;28;20071;-80
2020/12/25 04:52:18;;;;;;;1.40;0.20;;;3.00;93.90;;;;;;2045531;28;20438;-80
2020/12/25 04:53:20;;;;;;;1.17;0.20;;;3.00;93.90;;;;;;2050143;28;20031;-80
2020/12/25 04:54:20;;;;;;;1.67;0.25;;;3.00;93.90;;;;;;2057190;28;20027;-80
2020/12/25 04:55:21;;;;;;;1.10;0.20;;;3.00;93.90;;;;;;2049714;28;20114;-79
2020/12/25 04:56:23;;;;;;;0.93;0.20;;;3.00;93.90;;;;;;2049610;28;20461;-80
2020/12/25 04:57:27;;;;;;;0.40;0.10;;;3.00;93.90;;;;;;2050377;28;20038;-80
2020/12/25 04:58:27;;;;;;;1.27;0.20;;;3.00;93.90;;;;;;2042169;29;20036;-80
2020/12/25 04:59:29;;;;;;;0.98;0.30;;;3.10;93.90;;;;;;2044517;29;20034;-80
2020/12/25 05:00:30;;;;;;;1.58;0.28;;;3.10;93.90;;;;;;2049938;28;20032;-80
2020/12/25 05:01:31;;;;;;;0.57;0.20;;;3.10;93.80;;;;;;2058826;28;20054;-80
2020/12/25 05:02:35;;;;;;;1.50;0.20;;;3.10;93.80;;;;;;2057710;28;20047;-79
2020/12/25 05:03:40;;;;;;;0.90;0.20;;;3.10;93.80;;;;;;2051927;28;20026;-80
2020/12/25 05:04:41;;;;;;;1.17;0.20;;;3.10;93.80;;;;;;2056682;28;20416;-80
2020/12/25 05:05:44;;;;;;;1.13;0.20;;;3.10;93.80;;;;;;2057202;28;20513;-80
2020/12/25 05:06:50;;;;;;;1.55;0.20;;;3.20;93.80;;;;;;2050094;28;20035;-80
2020/12/25 05:07:52;;;;;;;2.08;0.20;;;3.20;93.80;;;;;;2056353;28;20034;-81
2020/12/25 05:08:53;;;;;;;0.82;0.20;;;3.10;93.80;;;;;;2055996;28;20038;-79
2020/12/25 05:09:55;;;;;;;0.40;0.20;;;3.10;94.00;;;;;;2057661;28;20472;-80
2020/12/25 05:10:55;;;;;;;2.10;0.30;;;3.10;93.80;;;;;;2057515;28;20042;-80
2020/12/25 05:11:57;;;;;;;1.05;0.20;;;3.10;93.80;;;;;;2057471;28;20473;-80
2020/12/25 05:12:58;;;;;;;1.42;0.30;;;3.10;93.80;;;;;;2050116;28;20028;-80
2020/12/25 05:13:59;;;;;;;0.77;0.20;;;3.20;93.80;;;;;;2041736;29;20036;-80
2020/12/25 05:15:05;;;;;;;1.50;0.20;;;3.20;93.80;;;;;;2049249;28;20110;-80
2020/12/25 05:16:06;;;;;;;2.35;0.20;;;3.20;93.80;;;;;;2057602;28;20374;-80
2020/12/25 05:17:10;;;;;;;1.80;0.30;;;3.20;93.80;;;;;;2065534;28;20089;-80
2020/12/25 05:18:14;;;;;;;0.32;0.20;;;3.20;93.80;;;;;;2057181;28;20081;-80
2020/12/25 05:19:15;;;;;;;0.80;0.22;;;3.20;93.80;;;;;;2057220;28;20449;-79
2020/12/25 05:20:16;;;;;;;0.85;0.20;;;3.20;93.80;;;;;;2054086;28;20038;-80
2020/12/25 05:21:18;;;;;;;2.60;0.30;;;3.20;93.70;;;;;;2050727;28;20089;-80
2020/12/25 05:22:19;;;;;;;1.40;0.20;;;3.20;93.70;;;;;;2049455;28;20083;-80